createdAt,value
2018-06-16T00:00:49.212Z,30.00
2018-06-16T00:01:49.200Z,30.00
2018-06-16T00:02:49.202Z,29.20
2018-06-16T00:03:49.187Z,29.60
2018-06-16T00:04:49.170Z,29.10
2018-06-16T00:05:49.158Z,29.90
2018-06-16T00:06:49.147Z,30.00
2018-06-16T00:07:49.135Z,30.40
2018-06-16T00:08:49.128Z,29.60
2018-06-16T00:09:49.116Z,30.70
2018-06-16T00:10:49.107Z,30.20
2018-06-16T00:11:49.237Z,30.20
2018-06-16T00:12:49.084Z,29.60
2018-06-16T00:13:49.096Z,29.60
2018-06-16T00:14:49.061Z,29.60
2018-06-16T00:15:49.051Z,29.50
2018-06-16T00:16:49.042Z,29.20
2018-06-16T00:17:49.016Z,28.60
2018-06-16T00:18:49.010Z,29.60
2018-06-16T00:19:49.014Z,29.40
2018-06-16T00:20:48.982Z,27.70
2018-06-16T00:21:49.082Z,29.50
2018-06-16T00:22:48.968Z,28.90
2018-06-16T00:23:49.004Z,28.50
2018-06-16T00:24:48.943Z,28.40
2018-06-16T00:25:48.930Z,28.80
2018-06-16T00:26:48.917Z,28.80
2018-06-16T00:27:48.955Z,29.40
2018-06-16T00:28:48.901Z,28.30
2018-06-16T00:29:48.876Z,27.60
2018-06-16T00:30:48.870Z,29.10
2018-06-16T00:31:48.860Z,27.00
2018-06-16T00:32:48.844Z,27.20
2018-06-16T00:33:48.837Z,27.20
2018-06-16T00:34:48.824Z,27.40
2018-06-16T00:35:48.820Z,27.50
2018-06-16T00:36:48.796Z,28.50
2018-06-16T00:37:48.790Z,26.30
2018-06-16T00:38:48.779Z,27.20
2018-06-16T00:39:48.767Z,27.00
2018-06-16T00:40:48.754Z,27.20
2018-06-16T00:41:48.741Z,27.50
2018-06-16T00:42:48.732Z,28.10
2018-06-16T00:43:48.723Z,27.70
2018-06-16T00:44:48.710Z,27.00
2018-06-16T00:45:48.700Z,27.60
2018-06-16T00:46:48.686Z,27.30
2018-06-16T00:47:48.682Z,27.20
2018-06-16T00:48:48.655Z,27.70
2018-06-16T00:49:48.652Z,28.50
2018-06-16T00:50:48.636Z,27.50
2018-06-16T00:51:48.630Z,27.50
2018-06-16T00:52:48.637Z,26.90
2018-06-16T00:53:48.604Z,26.30
2018-06-16T00:54:48.602Z,27.60
2018-06-16T00:55:48.583Z,27.80
2018-06-16T00:56:48.568Z,28.30
2018-06-16T00:57:48.560Z,28.20
2018-06-16T00:58:48.540Z,26.60
2018-06-16T00:59:48.535Z,27.80
2018-06-16T01:00:48.525Z,27.30
2018-06-16T01:01:48.521Z,26.20
2018-06-16T01:02:48.501Z,27.60
2018-06-16T01:03:48.486Z,27.30
2018-06-16T01:04:48.477Z,27.80
2018-06-16T01:05:48.470Z,25.50
2018-06-16T01:06:48.458Z,26.80
2018-06-16T01:07:48.436Z,26.60
2018-06-16T01:08:48.429Z,27.00
2018-06-16T01:09:48.417Z,27.10
2018-06-16T01:10:48.407Z,27.60
2018-06-16T01:11:48.400Z,27.80
2018-06-16T01:12:48.383Z,26.70
2018-06-16T01:13:48.371Z,26.90
2018-06-16T01:14:48.369Z,27.60
2018-06-16T01:15:48.347Z,26.80
2018-06-16T01:16:48.337Z,26.40
2018-06-16T01:17:48.328Z,27.40
2018-06-16T01:18:48.313Z,26.70
2018-06-16T01:19:48.304Z,28.70
2018-06-16T01:20:48.282Z,26.50
2018-06-16T01:21:48.278Z,29.30
2018-06-16T01:22:48.271Z,29.30
2018-06-16T01:23:48.255Z,28.80
2018-06-16T01:24:48.249Z,28.30
2018-06-16T01:25:48.231Z,28.40
2018-06-16T01:26:48.217Z,27.40
2018-06-16T01:27:48.210Z,29.10
2018-06-16T01:28:48.200Z,29.50
2018-06-16T01:29:48.185Z,29.40
2018-06-16T01:30:48.167Z,29.80
2018-06-16T01:31:48.156Z,30.00
2018-06-16T01:32:48.147Z,28.70
2018-06-16T01:33:48.136Z,28.10
2018-06-16T01:34:48.125Z,27.70
2018-06-16T01:35:48.111Z,28.60
2018-06-16T01:36:48.101Z,29.20
2018-06-16T01:37:48.086Z,28.30
2018-06-16T01:38:48.081Z,29.90
2018-06-16T01:39:48.065Z,29.20
2018-06-16T01:40:48.065Z,29.40
2018-06-16T01:41:48.044Z,29.00
2018-06-16T01:42:48.026Z,28.50
2018-06-16T01:43:48.014Z,29.60
2018-06-16T01:44:48.001Z,29.60
2018-06-16T01:45:47.998Z,29.50
2018-06-16T01:46:47.983Z,28.80
2018-06-16T01:47:47.970Z,29.50
2018-06-16T01:48:47.963Z,28.40
2018-06-16T01:49:47.946Z,28.40
2018-06-16T01:50:47.935Z,27.90
2018-06-16T01:51:47.924Z,28.10
2018-06-16T01:52:47.912Z,28.40
2018-06-16T01:53:47.901Z,29.50
2018-06-16T01:54:47.881Z,28.90
2018-06-16T01:55:47.882Z,27.70
2018-06-16T01:56:47.857Z,30.00
2018-06-16T01:57:47.848Z,29.50
2018-06-16T01:58:47.831Z,29.80
2018-06-16T01:59:47.827Z,31.40
2018-06-16T02:00:47.820Z,31.70
2018-06-16T02:01:47.802Z,30.80
2018-06-16T02:02:47.793Z,31.30
2018-06-16T02:03:47.774Z,30.70
2018-06-16T02:04:47.764Z,30.80
2018-06-16T02:05:47.760Z,30.40
2018-06-16T02:06:47.742Z,29.50
2018-06-16T02:07:47.732Z,29.50
2018-06-16T02:08:47.715Z,30.60
2018-06-16T02:09:47.713Z,30.20
2018-06-16T02:10:47.690Z,29.50
2018-06-16T02:11:47.676Z,29.10
2018-06-16T02:12:47.663Z,29.50
2018-06-16T02:13:47.802Z,29.10
2018-06-16T02:14:47.643Z,29.50
2018-06-16T02:15:47.634Z,28.90
2018-06-16T02:16:47.619Z,29.60
2018-06-16T02:17:47.612Z,29.40
2018-06-16T02:18:47.587Z,28.00
2018-06-16T02:19:47.580Z,28.60
2018-06-16T02:20:47.573Z,30.40
2018-06-16T02:21:47.558Z,28.40
2018-06-16T02:22:47.552Z,29.20
2018-06-16T02:23:47.631Z,28.40
2018-06-16T02:24:47.525Z,28.10
2018-06-16T02:25:47.609Z,28.80
2018-06-16T02:26:47.498Z,28.70
2018-06-16T02:27:47.577Z,28.60
2018-06-16T02:28:47.471Z,28.30
2018-06-16T02:29:47.486Z,28.80
2018-06-16T02:30:47.452Z,29.20
2018-06-16T02:31:47.535Z,29.30
2018-06-16T02:32:47.415Z,29.40
2018-06-16T02:33:47.458Z,28.90
2018-06-16T02:34:47.393Z,27.70
2018-06-16T02:35:47.385Z,28.40
2018-06-16T02:36:47.373Z,28.60
2018-06-16T02:37:47.360Z,29.50
2018-06-16T02:38:47.351Z,28.70
2018-06-16T02:39:47.350Z,27.80
2018-06-16T02:40:47.315Z,28.70
2018-06-16T02:41:47.309Z,29.20
2018-06-16T02:42:47.295Z,28.90
2018-06-16T02:43:47.285Z,30.00
2018-06-16T02:44:47.270Z,30.10
2018-06-16T02:45:47.256Z,30.20
2018-06-16T02:46:47.240Z,30.00
2018-06-16T02:47:47.235Z,29.60
2018-06-16T02:48:47.220Z,29.70
2018-06-16T02:49:47.212Z,30.20
2018-06-16T02:50:47.197Z,32.00
2018-06-16T02:51:47.184Z,30.70
2018-06-16T02:52:47.166Z,29.70
2018-06-16T02:53:47.178Z,29.90
2018-06-16T02:54:47.165Z,31.00
2018-06-16T02:55:47.131Z,30.50
2018-06-16T02:56:47.122Z,29.80
2018-06-16T02:57:47.112Z,31.00
2018-06-16T02:58:47.098Z,29.60
2018-06-16T02:59:47.082Z,29.70
2018-06-16T03:00:47.066Z,30.20
2018-06-16T03:01:47.053Z,30.10
2018-06-16T03:02:47.044Z,30.30
2018-06-16T03:03:47.038Z,30.80
2018-06-16T03:04:47.016Z,31.30
2018-06-16T03:05:47.006Z,30.70
2018-06-16T03:06:47.001Z,31.50
2018-06-16T03:07:46.978Z,32.00
2018-06-16T03:08:46.969Z,31.50
2018-06-16T03:09:46.955Z,30.50
2018-06-16T03:10:46.948Z,30.90
2018-06-16T03:11:46.925Z,30.10
2018-06-16T03:12:46.918Z,30.00
2018-06-16T03:13:46.900Z,30.60
2018-06-16T03:14:46.889Z,29.50
2018-06-16T03:15:46.884Z,30.00
2018-06-16T03:16:46.865Z,29.30
2018-06-16T03:17:46.851Z,30.40
2018-06-16T03:18:46.841Z,30.50
2018-06-16T03:19:46.825Z,30.30
2018-06-16T03:20:46.819Z,30.70
2018-06-16T03:21:46.799Z,29.90
2018-06-16T03:22:46.789Z,29.70
2018-06-16T03:23:46.777Z,30.00
2018-06-16T03:24:46.762Z,30.80
2018-06-16T03:25:46.764Z,29.90
2018-06-16T03:26:46.739Z,29.90
2018-06-16T03:27:46.730Z,31.90
2018-06-16T03:28:46.717Z,29.90
2018-06-16T03:29:46.720Z,31.60
2018-06-16T03:30:46.685Z,31.80
2018-06-16T03:31:46.684Z,31.30
2018-06-16T03:32:46.662Z,31.00
2018-06-16T03:33:46.650Z,31.60
2018-06-16T03:34:46.640Z,32.20
2018-06-16T03:35:46.624Z,30.00
2018-06-16T03:36:46.612Z,31.80
2018-06-16T03:37:46.602Z,32.20
2018-06-16T03:38:46.585Z,29.00
2018-06-16T03:39:46.575Z,31.60
2018-06-16T03:40:46.557Z,31.00
2018-06-16T03:41:46.548Z,29.80
2018-06-16T03:42:46.538Z,30.70
2018-06-16T03:43:46.521Z,30.80
2018-06-16T03:44:46.656Z,31.20
2018-06-16T03:45:46.496Z,30.60
2018-06-16T03:46:46.583Z,31.20
2018-06-16T03:47:46.464Z,31.20
2018-06-16T03:48:46.509Z,30.60
2018-06-16T03:49:46.438Z,31.30
2018-06-16T03:50:46.477Z,30.50
2018-06-16T03:51:46.422Z,30.30
2018-06-16T03:52:46.413Z,30.90
2018-06-16T03:53:46.392Z,31.80
2018-06-16T03:54:46.384Z,31.60
2018-06-16T03:55:46.365Z,31.70
2018-06-16T03:56:46.352Z,32.00
2018-06-16T03:57:46.346Z,29.50
2018-06-16T03:58:46.324Z,32.60
2018-06-16T03:59:46.315Z,30.00
2018-06-16T04:00:46.352Z,30.90
2018-06-16T04:01:46.303Z,30.30
2018-06-16T04:02:46.269Z,31.10
2018-06-16T04:03:46.258Z,31.90
2018-06-16T04:04:46.245Z,30.40
2018-06-16T04:05:46.238Z,31.00
2018-06-16T04:06:46.226Z,30.80
2018-06-16T04:07:46.215Z,30.10
2018-06-16T04:08:46.197Z,31.00
2018-06-16T04:09:46.186Z,29.60
2018-06-16T04:10:46.171Z,29.70
2018-06-16T04:11:46.161Z,29.40
2018-06-16T04:12:46.152Z,30.30
2018-06-16T04:13:46.136Z,28.80
2018-06-16T04:14:46.117Z,29.20
2018-06-16T04:15:46.103Z,30.10
2018-06-16T04:16:46.156Z,30.60
2018-06-16T04:17:46.083Z,29.40
2018-06-16T04:18:46.073Z,28.20
2018-06-16T04:19:46.063Z,30.00
2018-06-16T04:20:46.047Z,29.00
2018-06-16T04:21:46.032Z,29.60
2018-06-16T04:22:46.016Z,29.10
2018-06-16T04:23:46.010Z,29.20
2018-06-16T04:24:45.992Z,28.10
2018-06-16T04:25:45.977Z,29.30
2018-06-16T04:26:45.967Z,29.20
2018-06-16T04:27:45.958Z,29.90
2018-06-16T04:28:45.941Z,30.60
2018-06-16T04:29:45.930Z,28.40
2018-06-16T04:30:45.915Z,30.00
2018-06-16T04:31:45.900Z,29.70
2018-06-16T04:32:45.888Z,28.80
2018-06-16T04:33:45.880Z,29.90
2018-06-16T04:34:45.880Z,28.80
2018-06-16T04:35:45.850Z,28.50
2018-06-16T04:36:45.837Z,28.40
2018-06-16T04:37:45.821Z,29.00
2018-06-16T04:38:45.812Z,28.70
2018-06-16T04:39:45.802Z,29.20
2018-06-16T04:40:45.797Z,28.00
2018-06-16T04:41:45.779Z,27.80
2018-06-16T04:42:45.758Z,29.30
2018-06-16T04:43:45.749Z,28.40
2018-06-16T04:44:45.736Z,29.40
2018-06-16T04:45:45.876Z,28.50
2018-06-16T04:46:45.707Z,27.20
2018-06-16T04:47:45.694Z,27.80
2018-06-16T04:48:45.686Z,27.30
2018-06-16T04:49:45.679Z,28.40
2018-06-16T04:50:45.660Z,28.70
2018-06-16T04:51:45.644Z,26.70
2018-06-16T04:52:45.628Z,28.20
2018-06-16T04:53:45.621Z,27.80
2018-06-16T04:54:45.612Z,27.90
2018-06-16T04:55:45.602Z,28.20
2018-06-16T04:56:45.581Z,29.30
2018-06-16T04:57:45.570Z,28.60
2018-06-16T04:58:45.561Z,29.90
2018-06-16T04:59:45.551Z,29.70
2018-06-16T05:00:45.531Z,29.50
2018-06-16T05:01:45.515Z,29.00
2018-06-16T05:02:45.516Z,28.70
2018-06-16T05:03:45.496Z,28.80
2018-06-16T05:04:45.475Z,28.30
2018-06-16T05:05:45.467Z,27.90
2018-06-16T05:06:45.458Z,28.20
2018-06-16T05:07:45.448Z,27.30
2018-06-16T05:08:45.439Z,27.30
2018-06-16T05:09:45.421Z,27.70
2018-06-16T05:10:45.403Z,26.80
2018-06-16T05:11:45.404Z,26.80
2018-06-16T05:12:45.390Z,26.90
2018-06-16T05:13:45.377Z,26.50
2018-06-16T05:14:45.362Z,26.30
2018-06-16T05:15:45.351Z,26.40
2018-06-16T05:16:45.336Z,25.90
2018-06-16T05:17:45.320Z,25.70
2018-06-16T05:18:45.308Z,25.10
2018-06-16T05:19:45.301Z,24.00
2018-06-16T05:20:45.285Z,24.40
2018-06-16T05:21:45.277Z,23.90
2018-06-16T05:22:45.260Z,22.90
2018-06-16T05:23:45.261Z,23.50
2018-06-16T05:24:45.242Z,23.80
2018-06-16T05:25:45.328Z,23.70
2018-06-16T05:26:45.222Z,22.40
2018-06-16T05:27:45.212Z,22.40
2018-06-16T05:28:45.197Z,22.80
2018-06-16T05:29:45.182Z,20.80
2018-06-16T05:30:45.172Z,22.30
2018-06-16T05:31:45.166Z,20.40
2018-06-16T05:32:45.150Z,20.40
2018-06-16T05:33:45.136Z,18.80
2018-06-16T05:34:45.126Z,17.80
2018-06-16T05:35:45.115Z,18.30
2018-06-16T05:36:45.098Z,17.20
2018-06-16T05:37:45.092Z,16.90
2018-06-16T05:38:45.084Z,16.60
2018-06-16T05:39:45.067Z,16.70
2018-06-16T05:40:45.050Z,16.00
2018-06-16T05:41:45.039Z,15.90
2018-06-16T05:42:45.037Z,16.40
2018-06-16T05:43:45.021Z,16.10
2018-06-16T05:44:45.007Z,15.50
2018-06-16T05:45:44.998Z,15.80
2018-06-16T05:46:44.992Z,15.30
2018-06-16T05:47:44.976Z,16.40
2018-06-16T05:48:44.957Z,15.00
2018-06-16T05:49:44.946Z,15.40
2018-06-16T05:50:44.938Z,14.70
2018-06-16T05:51:44.921Z,14.90
2018-06-16T05:52:44.912Z,14.90
2018-06-16T05:53:44.912Z,15.00
2018-06-16T05:54:45.048Z,14.60
2018-06-16T05:55:44.880Z,14.40
2018-06-16T05:56:44.873Z,14.80
2018-06-16T05:57:44.857Z,14.80
2018-06-16T05:58:44.928Z,14.70
2018-06-16T05:59:44.835Z,14.50
2018-06-16T06:00:44.883Z,14.30
2018-06-16T06:01:44.809Z,13.90
2018-06-16T06:02:44.912Z,14.70
2018-06-16T06:03:44.787Z,13.60
2018-06-16T06:04:44.932Z,14.20
2018-06-16T06:05:44.767Z,14.70
2018-06-16T06:06:44.760Z,14.90
2018-06-16T06:07:44.746Z,14.30
2018-06-16T06:08:44.787Z,14.50
2018-06-16T06:09:44.717Z,13.60
2018-06-16T06:10:44.720Z,14.40
2018-06-16T06:11:44.710Z,14.20
2018-06-16T06:12:44.814Z,13.90
2018-06-16T06:13:44.674Z,15.30
2018-06-16T06:14:44.720Z,14.20
2018-06-16T06:15:44.712Z,14.10
2018-06-16T06:16:44.648Z,13.40
2018-06-16T06:17:44.633Z,13.70
2018-06-16T06:18:44.616Z,14.60
2018-06-16T06:19:44.611Z,13.80
2018-06-16T06:20:44.594Z,13.70
2018-06-16T06:21:44.588Z,13.40
2018-06-16T06:22:44.581Z,13.60
2018-06-16T06:23:44.579Z,13.70
2018-06-16T06:24:44.558Z,13.60
2018-06-16T06:25:44.543Z,12.40
2018-06-16T06:26:44.526Z,13.50
2018-06-16T06:27:44.517Z,13.30
2018-06-16T06:28:44.509Z,13.30
2018-06-16T06:29:44.498Z,12.70
2018-06-16T06:30:44.488Z,12.60
2018-06-16T06:31:44.481Z,13.90
2018-06-16T06:32:44.470Z,13.00
2018-06-16T06:33:44.455Z,12.80
2018-06-16T06:34:44.446Z,12.90
2018-06-16T06:35:44.442Z,12.30
2018-06-16T06:36:44.416Z,12.20
2018-06-16T06:37:44.420Z,12.20
2018-06-16T06:38:44.406Z,12.00
2018-06-16T06:39:44.391Z,12.80
2018-06-16T06:40:44.383Z,12.00
2018-06-16T06:41:44.369Z,12.40
2018-06-16T06:42:44.360Z,12.10
2018-06-16T06:43:44.354Z,11.50
2018-06-16T06:44:44.337Z,12.00
2018-06-16T06:45:44.328Z,12.20
2018-06-16T06:46:44.317Z,11.10
2018-06-16T06:47:44.308Z,11.80
2018-06-16T06:48:44.295Z,11.60
2018-06-16T06:49:44.291Z,11.60
2018-06-16T06:50:44.276Z,11.20
2018-06-16T06:51:44.282Z,11.40
2018-06-16T06:52:44.258Z,11.70
2018-06-16T06:53:44.244Z,10.90
2018-06-16T06:54:44.229Z,11.20
2018-06-16T06:55:44.223Z,12.10
2018-06-16T06:56:44.218Z,10.90
2018-06-16T06:57:44.203Z,11.20
2018-06-16T06:58:44.187Z,10.50
2018-06-16T06:59:44.184Z,10.20
2018-06-16T07:00:44.172Z,10.50
2018-06-16T07:01:44.163Z,10.00
2018-06-16T07:02:44.151Z,10.00
2018-06-16T07:03:44.154Z,10.40
2018-06-16T07:04:44.129Z,10.20
2018-06-16T07:05:44.124Z,10.70
2018-06-16T07:06:44.107Z,10.70
2018-06-16T07:07:44.102Z,10.60
2018-06-16T07:08:44.093Z,10.80
2018-06-16T07:09:44.092Z,9.70
2018-06-16T07:10:44.169Z,10.50
2018-06-16T07:11:44.061Z,10.60
2018-06-16T07:12:44.047Z,10.20
2018-06-16T07:13:44.037Z,9.80
2018-06-16T07:14:44.029Z,10.20
2018-06-16T07:15:44.017Z,10.20
2018-06-16T07:16:44.013Z,9.30
2018-06-16T07:17:44.006Z,9.60
2018-06-16T07:18:43.992Z,9.50
2018-06-16T07:19:43.983Z,10.30
2018-06-16T07:20:43.978Z,9.30
2018-06-16T07:21:43.960Z,9.40
2018-06-16T07:22:43.947Z,8.80
2018-06-16T07:23:43.945Z,8.60
2018-06-16T07:24:43.933Z,9.20
2018-06-16T07:25:43.932Z,8.90
2018-06-16T07:26:43.917Z,9.50
2018-06-16T07:27:43.897Z,9.30
2018-06-16T07:28:43.900Z,8.90
2018-06-16T07:29:43.885Z,8.90
2018-06-16T07:30:43.882Z,8.40
2018-06-16T07:31:43.862Z,8.40
2018-06-16T07:32:43.852Z,8.40
2018-06-16T07:33:43.853Z,8.80
2018-06-16T07:34:43.841Z,8.50
2018-06-16T07:35:43.830Z,8.30
2018-06-16T07:36:43.817Z,8.40
2018-06-16T07:37:43.811Z,8.20
2018-06-16T07:38:43.798Z,8.40
2018-06-16T07:39:43.792Z,9.00
2018-06-16T07:40:43.782Z,10.40
2018-06-16T07:41:43.774Z,8.80
2018-06-16T07:42:43.773Z,9.00
2018-06-16T07:43:43.763Z,8.00
2018-06-16T07:44:43.769Z,8.10
2018-06-16T07:45:43.741Z,8.30
2018-06-16T07:46:43.731Z,7.90
2018-06-16T07:47:43.722Z,8.30
2018-06-16T07:48:43.821Z,8.40
2018-06-16T07:49:43.700Z,8.00
2018-06-16T07:50:43.693Z,8.50
2018-06-16T07:51:43.684Z,8.10
2018-06-16T07:52:43.824Z,7.40
2018-06-16T07:53:43.667Z,8.20
2018-06-16T07:54:43.763Z,8.50
2018-06-16T07:55:43.651Z,7.80
2018-06-16T07:56:43.707Z,8.00
2018-06-16T07:57:43.626Z,7.20
2018-06-16T07:58:43.625Z,7.60
2018-06-16T07:59:43.628Z,8.10
2018-06-16T08:00:43.607Z,8.30
2018-06-16T08:01:43.598Z,8.00
2018-06-16T08:02:43.621Z,7.60
2018-06-16T08:03:43.582Z,7.00
2018-06-16T08:04:43.571Z,7.80
2018-06-16T08:05:43.566Z,8.10
2018-06-16T08:06:43.559Z,7.30
2018-06-16T08:07:43.553Z,8.20
2018-06-16T08:08:43.536Z,7.50
2018-06-16T08:09:43.534Z,8.00
2018-06-16T08:10:43.528Z,7.60
2018-06-16T08:11:43.518Z,7.30
2018-06-16T08:12:43.570Z,6.90
2018-06-16T08:13:43.494Z,6.60
2018-06-16T08:14:43.487Z,7.70
2018-06-16T08:15:43.478Z,7.30
2018-06-16T08:16:43.472Z,7.50
2018-06-16T08:17:43.471Z,6.50
2018-06-16T08:18:43.453Z,6.60
2018-06-16T08:19:43.442Z,6.80
2018-06-16T08:20:43.454Z,6.40
2018-06-16T08:21:43.429Z,7.10
2018-06-16T08:22:43.424Z,6.70
2018-06-16T08:23:43.420Z,6.60
2018-06-16T08:24:43.411Z,6.40
2018-06-16T08:25:43.404Z,6.40
2018-06-16T08:26:43.391Z,6.30
2018-06-16T08:27:43.386Z,7.50
2018-06-16T08:28:43.380Z,7.90
2018-06-16T08:29:43.367Z,7.70
2018-06-16T08:30:43.359Z,7.20
2018-06-16T08:31:43.357Z,6.30
2018-06-16T08:32:43.337Z,7.30
2018-06-16T08:33:43.353Z,6.80
2018-06-16T08:34:43.364Z,6.70
2018-06-16T08:35:43.328Z,6.80
2018-06-16T08:36:43.315Z,7.50
2018-06-16T08:37:43.356Z,6.70
2018-06-16T08:38:43.299Z,6.60
2018-06-16T08:39:43.341Z,6.60
2018-06-16T08:40:43.283Z,6.60
2018-06-16T08:41:43.274Z,6.30
2018-06-16T08:42:43.274Z,6.30
2018-06-16T08:43:43.255Z,6.50
2018-06-16T08:44:43.265Z,6.20
2018-06-16T08:45:43.252Z,6.00
2018-06-16T08:46:43.248Z,5.90
2018-06-16T08:47:43.232Z,6.10
2018-06-16T08:48:43.293Z,5.60
2018-06-16T08:49:43.206Z,6.30
2018-06-16T08:50:43.204Z,5.90
2018-06-16T08:51:43.197Z,6.40
2018-06-16T08:52:43.189Z,6.00
2018-06-16T08:53:43.181Z,5.90
2018-06-16T08:54:43.171Z,6.00
2018-06-16T08:55:43.258Z,6.10
2018-06-16T08:56:43.162Z,6.00
2018-06-16T08:57:43.148Z,5.90
2018-06-16T08:58:43.137Z,5.20
2018-06-16T08:59:43.129Z,6.10
2018-06-16T09:00:43.129Z,5.90
2018-06-16T09:01:43.117Z,6.20
2018-06-16T09:02:43.112Z,6.70
2018-06-16T09:03:43.098Z,6.40
2018-06-16T09:04:43.089Z,6.90
2018-06-16T09:05:43.089Z,7.20
2018-06-16T09:06:43.075Z,6.40
2018-06-16T09:07:43.072Z,7.00
2018-06-16T09:08:43.062Z,5.80
2018-06-16T09:09:43.046Z,5.60
2018-06-16T09:10:43.050Z,5.80
2018-06-16T09:11:43.037Z,4.60
2018-06-16T09:12:43.021Z,5.60
2018-06-16T09:13:43.021Z,5.30
2018-06-16T09:14:43.021Z,5.80
2018-06-16T09:15:43.022Z,6.20
2018-06-16T09:16:42.998Z,6.20
2018-06-16T09:17:43.000Z,6.20
2018-06-16T09:18:42.985Z,6.00
2018-06-16T09:19:42.983Z,5.90
2018-06-16T09:20:42.973Z,6.20
2018-06-16T09:21:42.962Z,6.10
2018-06-16T09:22:43.015Z,6.00
2018-06-16T09:23:42.941Z,5.90
2018-06-16T09:24:42.936Z,6.10
2018-06-16T09:25:42.930Z,7.00
2018-06-16T09:26:42.925Z,8.10
2018-06-16T09:27:42.917Z,7.60
2018-06-16T09:28:42.908Z,8.30
2018-06-16T09:29:42.900Z,10.00
2018-06-16T09:30:42.887Z,8.30
2018-06-16T09:31:42.940Z,8.60
2018-06-16T09:32:42.879Z,7.70
2018-06-16T09:33:42.872Z,6.40
2018-06-16T09:34:42.862Z,7.10
2018-06-16T09:35:42.864Z,7.40
2018-06-16T09:36:42.853Z,7.10
2018-06-16T09:37:42.837Z,7.10
2018-06-16T09:38:42.840Z,8.00
2018-06-16T09:39:42.821Z,7.30
2018-06-16T09:40:42.818Z,7.90
2018-06-16T09:41:42.812Z,7.60
2018-06-16T09:42:42.802Z,8.00
2018-06-16T09:43:42.793Z,9.50
2018-06-16T09:44:42.792Z,9.70
2018-06-16T09:45:42.783Z,10.20
2018-06-16T09:46:42.767Z,10.20
2018-06-16T09:47:42.766Z,11.10
2018-06-16T09:48:42.765Z,10.80
2018-06-16T09:49:42.747Z,11.20
2018-06-16T09:50:42.740Z,10.90
2018-06-16T09:51:42.735Z,11.20
2018-06-16T09:52:42.722Z,11.60
2018-06-16T09:53:42.722Z,9.90
2018-06-16T09:54:42.705Z,10.60
2018-06-16T09:55:42.706Z,11.90
2018-06-16T09:56:42.699Z,10.20
2018-06-16T09:57:42.700Z,10.90
2018-06-16T09:58:42.693Z,10.90
2018-06-16T09:59:42.673Z,10.90
2018-06-16T10:00:42.667Z,12.40
2018-06-16T10:01:42.657Z,13.40
2018-06-16T10:02:42.651Z,13.70
2018-06-16T10:03:42.697Z,13.00
2018-06-16T10:04:42.645Z,11.10
2018-06-16T10:05:42.632Z,11.20
2018-06-16T10:06:42.621Z,11.30
2018-06-16T10:07:42.616Z,12.10
2018-06-16T10:08:42.609Z,12.40
2018-06-16T10:09:42.616Z,12.30
2018-06-16T10:10:42.597Z,13.50
2018-06-16T10:11:42.587Z,12.20
2018-06-16T10:12:42.584Z,12.60
2018-06-16T10:13:42.632Z,14.00
2018-06-16T10:14:42.570Z,12.10
2018-06-16T10:15:42.565Z,11.70
2018-06-16T10:16:42.555Z,12.20
2018-06-16T10:17:42.558Z,11.70
2018-06-16T10:18:42.540Z,12.50
2018-06-16T10:19:42.540Z,12.90
2018-06-16T10:20:42.526Z,12.90
2018-06-16T10:21:42.518Z,12.90
2018-06-16T10:22:42.513Z,13.20
2018-06-16T10:23:42.508Z,10.30
2018-06-16T10:24:42.502Z,9.90
2018-06-16T10:25:42.500Z,10.00
2018-06-16T10:26:42.491Z,8.40
2018-06-16T10:27:42.484Z,8.90
2018-06-16T10:28:42.472Z,7.80
2018-06-16T10:29:42.466Z,7.90
2018-06-16T10:30:42.463Z,7.40
2018-06-16T10:31:42.450Z,7.70
2018-06-16T10:32:42.443Z,7.50
2018-06-16T10:33:42.434Z,8.10
2018-06-16T10:34:42.427Z,7.30
2018-06-16T10:35:42.424Z,7.10
2018-06-16T10:36:42.423Z,7.70
2018-06-16T10:37:42.412Z,10.00
2018-06-16T10:38:42.409Z,9.70
2018-06-16T10:39:42.396Z,10.00
2018-06-16T10:40:42.542Z,9.60
2018-06-16T10:41:42.389Z,9.10
2018-06-16T10:42:42.524Z,9.70
2018-06-16T10:43:42.372Z,9.30
2018-06-16T10:44:42.417Z,8.20
2018-06-16T10:45:42.358Z,8.20
2018-06-16T10:46:42.450Z,7.50
2018-06-16T10:47:42.344Z,7.70
2018-06-16T10:48:42.383Z,7.10
2018-06-16T10:49:42.332Z,7.40
2018-06-16T10:50:42.319Z,7.00
2018-06-16T10:51:42.316Z,7.10
2018-06-16T10:52:42.357Z,7.40
2018-06-16T10:53:42.296Z,6.90
2018-06-16T10:54:42.294Z,8.00
2018-06-16T10:55:42.282Z,7.50
2018-06-16T10:56:42.285Z,7.60
2018-06-16T10:57:42.273Z,6.50
2018-06-16T10:58:42.263Z,5.80
2018-06-16T10:59:42.260Z,6.30
2018-06-16T11:00:42.247Z,6.20
2018-06-16T11:01:42.247Z,6.90
2018-06-16T11:02:42.242Z,6.20
2018-06-16T11:03:42.231Z,6.40
2018-06-16T11:04:42.223Z,6.30
2018-06-16T11:05:42.216Z,5.60
2018-06-16T11:06:42.208Z,6.10
2018-06-16T11:07:42.199Z,6.00
2018-06-16T11:08:42.199Z,5.60
2018-06-16T11:09:42.186Z,5.80
2018-06-16T11:10:42.176Z,5.90
2018-06-16T11:11:42.170Z,5.60
2018-06-16T11:12:42.164Z,6.20
2018-06-16T11:13:42.161Z,5.70
2018-06-16T11:14:42.147Z,5.90
2018-06-16T11:15:42.146Z,7.20
2018-06-16T11:16:42.136Z,6.50
2018-06-16T11:17:42.122Z,6.40
2018-06-16T11:18:42.132Z,6.30
2018-06-16T11:19:42.120Z,6.00
2018-06-16T11:20:42.102Z,6.60
2018-06-16T11:21:42.094Z,7.40
2018-06-16T11:22:42.090Z,7.10
2018-06-16T11:23:42.084Z,7.70
2018-06-16T11:24:42.077Z,7.50
2018-06-16T11:25:42.069Z,7.50
2018-06-16T11:26:42.061Z,7.90
2018-06-16T11:27:42.051Z,7.40
2018-06-16T11:28:42.048Z,7.20
2018-06-16T11:29:42.035Z,7.00
2018-06-16T11:30:42.032Z,7.00
2018-06-16T11:31:42.019Z,7.10
2018-06-16T11:32:42.017Z,6.60
2018-06-16T11:33:42.006Z,6.90
2018-06-16T11:34:41.999Z,6.40
2018-06-16T11:35:41.987Z,7.20
2018-06-16T11:36:41.983Z,7.00
2018-06-16T11:37:41.978Z,7.30
2018-06-16T11:38:41.969Z,7.70
2018-06-16T11:39:41.967Z,8.10
2018-06-16T11:40:41.948Z,7.50
2018-06-16T11:41:41.954Z,7.50
2018-06-16T11:42:41.980Z,6.30
2018-06-16T11:43:41.926Z,6.70
2018-06-16T11:44:41.929Z,5.80
2018-06-16T11:45:41.913Z,5.80
2018-06-16T11:46:41.911Z,5.70
2018-06-16T11:47:41.897Z,9.20
2018-06-16T11:48:41.910Z,6.00
2018-06-16T11:49:41.891Z,6.80
2018-06-16T11:50:41.881Z,5.90
2018-06-16T11:51:41.872Z,6.40
2018-06-16T11:52:41.869Z,6.20
2018-06-16T11:53:41.859Z,6.00
2018-06-16T11:54:41.846Z,6.00
2018-06-16T11:55:41.840Z,6.20
2018-06-16T11:56:41.828Z,6.70
2018-06-16T11:57:41.862Z,6.10
2018-06-16T11:58:41.818Z,6.30
2018-06-16T11:59:41.816Z,6.20
2018-06-16T12:00:41.801Z,6.30
2018-06-16T12:01:41.795Z,6.80
2018-06-16T12:02:41.786Z,7.20
2018-06-16T12:03:41.787Z,6.70
2018-06-16T12:04:41.785Z,6.40
2018-06-16T12:05:41.766Z,6.70
2018-06-16T12:06:41.760Z,6.10
2018-06-16T12:07:41.759Z,5.80
2018-06-16T12:08:41.746Z,6.00
2018-06-16T12:09:41.738Z,6.00
2018-06-16T12:10:41.738Z,5.60
2018-06-16T12:11:41.725Z,5.90
2018-06-16T12:12:41.718Z,5.30
2018-06-16T12:13:41.721Z,5.10
2018-06-16T12:14:41.699Z,5.80
2018-06-16T12:15:41.696Z,6.50
2018-06-16T12:16:41.688Z,7.20
2018-06-16T12:17:41.683Z,6.90
2018-06-16T12:18:41.673Z,6.20
2018-06-16T12:19:41.668Z,6.30
2018-06-16T12:20:41.655Z,5.80
2018-06-16T12:21:41.651Z,6.20
2018-06-16T12:22:41.652Z,6.10
2018-06-16T12:23:41.638Z,5.60
2018-06-16T12:24:41.629Z,5.60
2018-06-16T12:25:41.625Z,6.00
2018-06-16T12:26:41.618Z,5.10
2018-06-16T12:27:41.606Z,6.10
2018-06-16T12:28:41.594Z,6.40
2018-06-16T12:29:41.609Z,6.60
2018-06-16T12:30:41.588Z,6.10
2018-06-16T12:31:41.587Z,5.50
2018-06-16T12:32:41.576Z,5.30
2018-06-16T12:33:41.562Z,5.90
2018-06-16T12:34:41.556Z,5.80
2018-06-16T12:35:41.551Z,6.20
2018-06-16T12:36:41.539Z,5.60
2018-06-16T12:37:41.542Z,5.80
2018-06-16T12:38:41.524Z,6.40
2018-06-16T12:39:41.529Z,5.70
2018-06-16T12:40:41.533Z,5.90
2018-06-16T12:41:41.508Z,6.30
2018-06-16T12:42:41.500Z,5.90
2018-06-16T12:43:41.581Z,5.30
2018-06-16T12:44:41.529Z,5.50
2018-06-16T12:45:41.476Z,5.70
2018-06-16T12:46:41.466Z,6.10
2018-06-16T12:47:41.613Z,6.50
2018-06-16T12:48:41.457Z,5.90
2018-06-16T12:49:41.447Z,5.90
2018-06-16T12:50:41.446Z,6.00
2018-06-16T12:51:41.538Z,7.20
2018-06-16T12:52:41.431Z,7.20
2018-06-16T12:53:41.450Z,6.60
2018-06-16T12:54:41.412Z,6.10
2018-06-16T12:55:41.409Z,6.40
2018-06-16T12:56:41.416Z,6.50
2018-06-16T12:57:41.424Z,6.20
2018-06-16T12:58:41.392Z,5.90
2018-06-16T12:59:41.377Z,6.00
2018-06-16T13:00:41.373Z,6.00
2018-06-16T13:01:41.368Z,5.70
2018-06-16T13:02:41.361Z,6.40